Time;durP1;ratioP1;P1;durP2;ratioP2;P2;SDS_P1;SDS_P2;PMS_P1;PMS_P2;Temp;Humidity;BMP_temperature;BMP_pressure;BME280_temperature;BME280_humidity;BME280_pressure;Samples;Min_cycle;Max_cycle;Signal;HPM_P1;HPM_P2
2022/12/20 00:01:11;;;;;;;0.95;0.60;;;9.80;90.10;;;;;;6244844;23;19996;-75
2022/12/20 00:03:37;;;;;;;0.70;0.65;;;9.80;90.10;;;;;;6237231;23;20313;-74
2022/12/20 00:06:03;;;;;;;0.77;0.60;;;9.70;90.10;;;;;;6245065;23;20084;-74
2022/12/20 00:08:30;;;;;;;0.75;0.70;;;9.70;90.10;;;;;;6211556;23;20011;-74
2022/12/20 00:10:55;;;;;;;1.10;0.60;;;9.80;90.10;;;;;;6214433;23;20032;-73
2022/12/20 00:13:21;;;;;;;0.98;0.77;;;9.90;90.10;;;;;;6214620;23;20333;-73
2022/12/20 00:15:47;;;;;;;0.77;0.70;;;9.80;90.10;;;;;;6215539;23;20034;-73
2022/12/20 00:18:12;;;;;;;1.65;0.85;;;9.80;90.10;;;;;;6214626;23;19996;-73
2022/12/20 00:20:38;;;;;;;0.95;0.65;;;9.80;90.00;;;;;;6214210;23;20008;-73
2022/12/20 00:23:03;;;;;;;1.27;0.77;;;9.80;90.00;;;;;;6239365;23;20047;-74
2022/12/20 00:25:29;;;;;;;0.90;0.80;;;9.90;90.10;;;;;;6214894;23;20441;-73
2022/12/20 00:27:55;;;;;;;1.33;0.80;;;9.90;90.00;;;;;;6244833;23;20010;-73
2022/12/20 00:30:20;;;;;;;1.10;0.90;;;10.00;90.00;;;;;;6192339;23;20004;-73
2022/12/20 00:32:46;;;;;;;1.52;0.80;;;10.00;89.90;;;;;;6244131;23;20432;-73
2022/12/20 00:35:12;;;;;;;0.93;0.73;;;10.10;89.80;;;;;;6219049;23;20003;-77
2022/12/20 00:37:38;;;;;;;1.08;0.88;;;10.10;89.60;;;;;;6246873;23;20349;-73
2022/12/20 00:40:05;;;;;;;0.73;0.70;;;10.20;89.50;;;;;;6244086;23;20092;-73
2022/12/20 00:42:32;;;;;;;1.05;0.63;;;10.30;89.40;;;;;;6214977;23;20080;-74
2022/12/20 00:44:57;;;;;;;0.82;0.73;;;10.30;89.30;;;;;;6244909;23;20308;-74
2022/12/20 00:47:23;;;;;;;2.75;0.80;;;10.40;89.10;;;;;;6247673;23;19996;-75
2022/12/20 00:49:48;;;;;;;0.73;0.73;;;10.40;89.00;;;;;;6194613;23;19996;-74
2022/12/20 00:52:14;;;;;;;1.13;0.80;;;10.40;88.90;;;;;;6246648;23;20083;-74
2022/12/20 00:54:40;;;;;;;1.30;1.10;;;10.40;89.00;;;;;;6213785;23;20017;-74
2022/12/20 00:57:05;;;;;;;0.80;0.80;;;10.50;89.00;;;;;;6244141;23;20000;-74
2022/12/20 00:59:32;;;;;;;0.60;0.60;;;10.50;88.80;;;;;;6244322;23;20024;-74
2022/12/20 01:01:58;;;;;;;1.05;0.85;;;10.60;88.90;;;;;;6215907;23;20009;-74
2022/12/20 01:04:23;;;;;;;1.45;0.93;;;10.70;88.80;;;;;;6244787;23;20007;-74
2022/12/20 01:06:49;;;;;;;0.68;0.68;;;10.60;88.60;;;;;;6244276;23;20103;-73
2022/12/20 01:09:15;;;;;;;1.48;0.82;;;10.70;88.60;;;;;;6244865;23;20004;-74
2022/12/20 01:11:40;;;;;;;0.75;0.60;;;10.70;88.70;;;;;;6216329;23;20007;-74
2022/12/20 01:14:11;;;;;;;0.75;0.70;;;10.70;88.60;;;;;;6193575;23;20012;-74
2022/12/20 01:16:41;;;;;;;0.80;0.73;;;10.80;88.60;;;;;;6245200;23;20003;-73
2022/12/20 01:19:09;;;;;;;0.70;0.70;;;10.70;88.50;;;;;;6244325;23;20024;-73
2022/12/20 01:21:35;;;;;;;1.00;0.70;;;10.70;88.50;;;;;;6243600;23;20005;-73
2022/12/20 01:24:00;;;;;;;0.90;0.75;;;10.70;88.60;;;;;;6243548;23;20008;-73
2022/12/20 01:26:28;;;;;;;0.90;0.60;;;10.70;89.20;;;;;;6244206;23;20011;-73
2022/12/20 01:28:56;;;;;;;0.80;0.70;;;10.70;88.70;;;;;;6243683;23;20436;-73
2022/12/20 01:31:23;;;;;;;1.23;0.80;;;10.70;88.70;;;;;;6243660;23;20392;-73
2022/12/20 01:33:50;;;;;;;1.10;0.80;;;10.70;88.70;;;;;;6217677;23;20371;-74
2022/12/20 01:36:19;;;;;;;1.33;0.80;;;10.70;88.60;;;;;;6244255;23;20333;-74
2022/12/20 01:38:44;;;;;;;1.10;0.80;;;10.70;88.70;;;;;;6244238;23;20053;-74
2022/12/20 01:41:17;;;;;;;0.65;0.60;;;10.70;88.70;;;;;;6244360;23;20005;-74
2022/12/20 01:43:52;;;;;;;0.80;0.70;;;10.70;88.70;;;;;;6245211;23;20011;-74
2022/12/20 01:46:21;;;;;;;0.90;0.55;;;10.70;88.70;;;;;;6219644;23;20016;-74
2022/12/20 01:48:53;;;;;;;0.68;0.60;;;10.70;88.70;;;;;;6218385;23;20000;-74
2022/12/20 01:51:20;;;;;;;1.60;0.80;;;10.60;88.90;;;;;;6244412;23;20004;-74
2022/12/20 01:53:49;;;;;;;0.85;0.80;;;10.60;88.90;;;;;;6219569;23;20018;-75
2022/12/20 01:56:14;;;;;;;1.00;0.70;;;10.60;89.00;;;;;;6247511;23;20316;-73
2022/12/20 01:58:42;;;;;;;0.77;0.75;;;10.50;89.10;;;;;;6167017;23;20000;-74
2022/12/20 02:01:07;;;;;;;1.08;0.93;;;10.50;89.10;;;;;;6217234;23;20000;-74
2022/12/20 02:03:33;;;;;;;1.05;0.90;;;10.50;89.30;;;;;;6244531;23;20429;-73
2022/12/20 02:06:17;;;;;;;1.33;0.90;;;10.50;89.40;;;;;;6244399;23;20024;-73
2022/12/20 02:08:45;;;;;;;0.80;0.70;;;10.50;89.50;;;;;;6244484;23;20007;-73
2022/12/20 02:11:44;;;;;;;1.85;1.00;;;10.40;89.60;;;;;;6217547;23;20004;-73
2022/12/20 02:14:31;;;;;;;0.80;0.80;;;10.30;89.70;;;;;;6243396;23;20016;-73
2022/12/20 02:17:15;;;;;;;1.48;0.90;;;10.30;89.90;;;;;;6191271;23;19996;-73
2022/12/20 02:20:15;;;;;;;1.95;1.00;;;10.30;90.00;;;;;;6216582;23;20090;-73
2022/12/20 02:23:15;;;;;;;1.63;1.00;;;10.20;90.00;;;;;;6243582;23;20004;-73
2022/12/20 02:25:59;;;;;;;2.75;1.20;;;10.10;90.10;;;;;;6243657;23;20391;-74
2022/12/20 02:28:44;;;;;;;1.08;0.75;;;10.20;90.20;;;;;;6239609;23;19996;-73
2022/12/20 02:31:13;;;;;;;1.02;0.90;;;10.10;90.30;;;;;;6243772;23;20032;-73
2022/12/20 02:33:45;;;;;;;0.82;0.80;;;10.00;90.30;;;;;;6244034;23;20043;-73
2022/12/20 02:36:14;;;;;;;1.52;0.90;;;10.00;90.40;;;;;;6244075;23;20023;-73
2022/12/20 02:38:39;;;;;;;2.33;1.10;;;10.00;90.40;;;;;;6243389;23;19996;-73
2022/12/20 02:41:13;;;;;;;1.20;0.82;;;9.90;90.50;;;;;;6217690;23;20004;-74
2022/12/20 02:46:26;;;;;;;1.08;0.70;;;9.90;90.60;;;;;;6243582;23;20020;-73
2022/12/20 02:48:57;;;;;;;0.90;0.70;;;9.90;90.60;;;;;;6191648;23;20010;-73
2022/12/20 02:51:25;;;;;;;1.02;0.65;;;10.00;90.70;;;;;;6217223;23;20023;-73
2022/12/20 02:53:51;;;;;;;1.17;0.80;;;9.90;90.70;;;;;;6243851;23;20408;-73
2022/12/20 02:56:29;;;;;;;1.00;0.80;;;9.90;90.70;;;;;;6243247;23;20139;-73
2022/12/20 02:59:02;;;;;;;0.70;0.60;;;9.90;90.80;;;;;;6243757;23;20004;-73
2022/12/20 03:01:32;;;;;;;0.73;0.63;;;9.90;90.80;;;;;;6243692;23;20499;-73
2022/12/20 03:03:59;;;;;;;0.53;0.53;;;9.80;90.80;;;;;;6243829;23;20078;-73
2022/12/20 03:06:26;;;;;;;0.60;0.60;;;9.80;90.80;;;;;;6243477;23;20301;-73
2022/12/20 03:08:51;;;;;;;0.68;0.47;;;9.90;90.90;;;;;;6242790;23;20000;-73
2022/12/20 03:11:19;;;;;;;0.50;0.50;;;9.90;90.90;;;;;;6243521;23;20027;-73
2022/12/20 03:13:44;;;;;;;0.70;0.60;;;9.80;90.90;;;;;;6243197;23;20424;-73
2022/12/20 03:16:10;;;;;;;0.63;0.60;;;9.90;91.00;;;;;;6216471;23;20093;-73
2022/12/20 03:18:36;;;;;;;1.35;0.70;;;9.90;91.00;;;;;;6243603;23;20028;-73
2022/12/20 03:21:02;;;;;;;2.45;0.82;;;9.90;91.00;;;;;;6243530;23;19996;-73
2022/12/20 03:23:28;;;;;;;0.70;0.70;;;9.90;91.00;;;;;;6243087;23;20036;-73
2022/12/20 03:25:53;;;;;;;1.23;0.80;;;9.90;91.00;;;;;;6208759;23;20001;-73
2022/12/20 03:28:19;;;;;;;1.08;0.70;;;10.00;91.10;;;;;;6185177;23;20055;-73
2022/12/20 03:30:46;;;;;;;2.20;0.85;;;9.90;91.10;;;;;;6214397;23;20095;-73
2022/12/20 03:33:11;;;;;;;1.65;1.00;;;10.00;91.30;;;;;;6213987;23;20329;-73
2022/12/20 03:35:37;;;;;;;0.88;0.80;;;10.00;91.00;;;;;;6214020;23;20003;-73
2022/12/20 03:38:03;;;;;;;0.90;0.75;;;10.00;90.90;;;;;;6187442;23;20019;-73
2022/12/20 03:40:29;;;;;;;1.02;0.80;;;10.10;91.00;;;;;;6213963;23;20001;-73
2022/12/20 03:42:54;;;;;;;0.90;0.73;;;10.00;90.90;;;;;;6214535;23;20311;-73
2022/12/20 03:45:20;;;;;;;1.08;0.90;;;10.10;91.00;;;;;;6213932;23;20421;-73
2022/12/20 03:47:45;;;;;;;1.48;0.98;;;10.00;91.00;;;;;;6214442;23;20008;-73
2022/12/20 03:50:11;;;;;;;1.27;0.98;;;10.10;91.00;;;;;;6213885;23;20007;-73
2022/12/20 03:52:37;;;;;;;0.93;0.88;;;10.20;91.00;;;;;;6213907;23;20084;-73
2022/12/20 03:55:03;;;;;;;1.70;1.00;;;10.20;90.90;;;;;;6213796;23;20063;-73
2022/12/20 03:57:29;;;;;;;1.00;0.68;;;10.20;90.90;;;;;;6214500;23;20004;-73
2022/12/20 03:59:55;;;;;;;0.93;0.80;;;10.30;90.90;;;;;;6214068;23;20283;-73
2022/12/20 04:02:21;;;;;;;1.35;0.82;;;10.30;90.80;;;;;;6186800;23;20008;-73
2022/12/20 04:04:47;;;;;;;1.23;0.95;;;10.30;90.80;;;;;;6214039;23;20004;-73
2022/12/20 04:07:13;;;;;;;0.70;0.70;;;10.30;90.80;;;;;;6214497;23;20444;-73
2022/12/20 04:09:39;;;;;;;1.58;1.00;;;10.30;90.80;;;;;;6214214;23;20051;-73
2022/12/20 04:12:04;;;;;;;1.10;0.80;;;10.30;90.80;;;;;;6214156;23;20376;-73
2022/12/20 04:14:30;;;;;;;1.58;0.77;;;10.30;90.80;;;;;;6182869;23;20315;-73
2022/12/20 04:16:56;;;;;;;1.13;0.70;;;10.50;90.90;;;;;;6244763;23;19997;-73
2022/12/20 04:19:21;;;;;;;1.13;0.95;;;10.30;90.80;;;;;;6244073;23;20324;-73
2022/12/20 04:21:47;;;;;;;1.35;1.00;;;10.40;90.90;;;;;;6244635;23;20118;-73
2022/12/20 04:24:13;;;;;;;1.50;1.00;;;10.40;90.80;;;;;;6244095;23;20023;-73
2022/12/20 04:26:39;;;;;;;2.10;1.00;;;10.40;90.80;;;;;;6244150;23;20004;-73
2022/12/20 04:29:04;;;;;;;0.88;0.70;;;10.50;90.80;;;;;;6217970;23;20359;-73
2022/12/20 04:31:30;;;;;;;1.30;0.90;;;10.50;90.80;;;;;;6244677;23;20000;-73
2022/12/20 04:33:56;;;;;;;1.50;0.90;;;10.50;90.80;;;;;;6243938;23;20008;-73
2022/12/20 04:36:21;;;;;;;1.30;0.90;;;10.50;90.70;;;;;;6244475;23;20054;-73
2022/12/20 04:38:47;;;;;;;1.30;0.90;;;10.50;91.00;;;;;;6244616;23;20142;-73
2022/12/20 04:41:20;;;;;;;1.02;0.85;;;10.60;90.70;;;;;;6217042;23;20424;-73
2022/12/20 04:43:49;;;;;;;1.13;0.85;;;10.60;90.70;;;;;;6219951;23;20413;-73
2022/12/20 04:46:20;;;;;;;1.20;0.80;;;10.60;90.60;;;;;;6244793;23;20428;-73
2022/12/20 04:48:45;;;;;;;1.00;0.75;;;10.60;90.60;;;;;;6244668;23;20068;-73
2022/12/20 04:51:11;;;;;;;0.65;0.65;;;10.70;90.70;;;;;;6244677;23;20442;-73
2022/12/20 04:56:21;;;;;;;1.60;0.95;;;10.80;90.70;;;;;;6220716;23;20004;-73
2022/12/20 04:58:49;;;;;;;0.98;0.80;;;10.80;90.60;;;;;;6244688;23;19992;-73
2022/12/20 05:01:15;;;;;;;1.42;0.77;;;10.80;90.50;;;;;;6244737;23;20004;-73
2022/12/20 05:03:42;;;;;;;1.02;0.90;;;10.90;90.50;;;;;;6218286;23;20044;-73
2022/12/20 05:06:09;;;;;;;1.75;0.90;;;11.00;90.50;;;;;;6244350;23;20004;-73
2022/12/20 05:08:35;;;;;;;1.13;0.90;;;10.90;90.50;;;;;;6245013;23;20328;-73
2022/12/20 05:11:00;;;;;;;1.27;1.00;;;10.80;90.50;;;;;;6245131;23;20011;-73
2022/12/20 05:13:26;;;;;;;1.15;0.80;;;10.80;90.60;;;;;;6244737;23;20020;-73
2022/12/20 05:15:53;;;;;;;1.65;1.00;;;10.90;90.60;;;;;;6244838;23;20434;-73
2022/12/20 05:18:20;;;;;;;1.60;1.10;;;10.90;90.60;;;;;;6217752;23;20431;-73
2022/12/20 05:20:46;;;;;;;1.27;1.02;;;11.00;90.50;;;;;;6244871;23;20008;-73
2022/12/20 05:28:30;;;;;;;2.33;1.20;;;10.90;90.40;;;;;;6220629;23;20008;-73
2022/12/20 05:30:56;;;;;;;1.65;1.00;;;11.00;90.50;;;;;;6244905;23;20007;-73
2022/12/20 05:33:22;;;;;;;1.95;1.00;;;10.90;90.60;;;;;;6244105;23;20333;-73
2022/12/20 05:35:47;;;;;;;1.33;0.80;;;10.90;90.60;;;;;;6244772;23;20050;-73
2022/12/20 05:38:13;;;;;;;1.35;0.90;;;10.90;90.70;;;;;;6244652;23;20004;-73
2022/12/20 05:40:39;;;;;;;0.73;0.70;;;10.70;90.80;;;;;;6244656;23;20413;-73
2022/12/20 05:43:05;;;;;;;0.70;0.70;;;10.70;90.80;;;;;;6244026;23;20428;-73
2022/12/20 05:45:31;;;;;;;0.65;0.65;;;10.70;90.90;;;;;;6244745;23;20000;-73
2022/12/20 05:47:57;;;;;;;1.33;0.82;;;10.70;90.90;;;;;;6213194;23;20001;-73
2022/12/20 05:50:23;;;;;;;0.88;0.70;;;10.70;90.90;;;;;;6217415;23;20004;-73
2022/12/20 05:52:49;;;;;;;0.80;0.68;;;10.70;91.00;;;;;;6243260;23;20054;-73
2022/12/20 05:55:14;;;;;;;1.00;0.70;;;10.70;91.00;;;;;;6216954;23;20425;-73
2022/12/20 05:57:40;;;;;;;1.08;0.85;;;10.60;91.00;;;;;;6243974;23;20443;-73
2022/12/20 06:00:06;;;;;;;0.70;0.70;;;10.60;91.10;;;;;;6243858;23;20026;-73
2022/12/20 06:02:32;;;;;;;0.70;0.57;;;10.50;91.10;;;;;;6244070;23;20062;-73
2022/12/20 06:04:58;;;;;;;0.82;0.68;;;10.60;91.20;;;;;;6244000;23;20000;-73
2022/12/20 06:07:27;;;;;;;0.80;0.65;;;10.50;91.20;;;;;;6244285;23;19996;-73
2022/12/20 06:09:53;;;;;;;0.63;0.63;;;10.50;91.20;;;;;;6244324;23;20084;-73
2022/12/20 06:12:19;;;;;;;0.38;0.38;;;10.60;91.20;;;;;;6244268;23;20024;-73
2022/12/20 06:14:45;;;;;;;0.40;0.40;;;10.60;91.20;;;;;;6243649;23;20004;-73
2022/12/20 06:17:11;;;;;;;0.50;0.50;;;10.50;91.20;;;;;;6244384;23;20099;-73
2022/12/20 06:19:38;;;;;;;1.27;0.70;;;10.60;91.20;;;;;;6244127;23;20011;-73
2022/12/20 06:22:04;;;;;;;0.90;0.55;;;10.70;91.30;;;;;;6243850;23;20000;-73
2022/12/20 06:24:30;;;;;;;0.55;0.55;;;10.60;91.20;;;;;;6213190;23;20058;-73
2022/12/20 06:26:56;;;;;;;0.75;0.60;;;10.70;91.20;;;;;;6244119;23;20004;-73
2022/12/20 06:29:23;;;;;;;0.90;0.60;;;10.70;91.20;;;;;;6243642;23;20008;-73
2022/12/20 06:31:49;;;;;;;0.98;0.80;;;10.70;91.10;;;;;;6244086;23;20034;-73
2022/12/20 06:34:14;;;;;;;1.67;0.55;;;10.70;91.10;;;;;;6243506;23;20043;-73
2022/12/20 06:36:40;;;;;;;0.63;0.50;;;10.70;91.20;;;;;;6244131;23;20097;-73
2022/12/20 06:39:08;;;;;;;1.10;0.75;;;10.70;91.20;;;;;;6212905;23;20086;-73
2022/12/20 06:41:34;;;;;;;0.47;0.45;;;10.70;91.20;;;;;;6244296;23;20008;-73
2022/12/20 06:43:59;;;;;;;0.55;0.55;;;10.70;91.40;;;;;;6243878;23;20011;-73
2022/12/20 06:46:26;;;;;;;0.65;0.63;;;10.70;91.10;;;;;;6243543;23;20011;-73
2022/12/20 06:48:52;;;;;;;0.93;0.85;;;10.80;91.10;;;;;;6216492;23;20012;-73
2022/12/20 06:51:18;;;;;;;0.90;0.70;;;10.80;91.10;;;;;;6243949;23;20079;-73
2022/12/20 06:53:43;;;;;;;1.02;0.77;;;10.80;91.00;;;;;;6243946;23;20046;-73
2022/12/20 06:56:09;;;;;;;1.45;0.70;;;10.80;91.00;;;;;;6244042;23;20000;-73
2022/12/20 06:58:35;;;;;;;1.42;0.80;;;10.90;91.00;;;;;;6243933;23;20008;-73
2022/12/20 07:01:00;;;;;;;0.88;0.60;;;10.80;91.00;;;;;;6217088;23;20027;-73
2022/12/20 07:03:26;;;;;;;0.70;0.70;;;10.90;91.00;;;;;;6237257;23;20001;-73
2022/12/20 07:05:53;;;;;;;0.45;0.40;;;10.80;91.00;;;;;;6185776;23;20008;-73
2022/12/20 07:08:19;;;;;;;0.73;0.63;;;10.90;91.00;;;;;;6214267;23;20024;-73
2022/12/20 07:10:45;;;;;;;0.60;0.60;;;10.90;90.90;;;;;;6187673;23;20008;-73
2022/12/20 07:13:11;;;;;;;0.75;0.50;;;10.90;91.00;;;;;;6240700;23;20008;-73
2022/12/20 07:15:36;;;;;;;0.60;0.60;;;10.90;90.90;;;;;;6244516;23;20011;-73
2022/12/20 07:18:03;;;;;;;1.55;0.90;;;10.80;90.80;;;;;;6216544;23;20001;-73
2022/12/20 07:20:29;;;;;;;1.35;0.70;;;10.90;90.90;;;;;;6215879;23;20047;-73
2022/12/20 07:22:55;;;;;;;0.57;0.57;;;10.90;90.90;;;;;;6244352;23;20011;-73
2022/12/20 07:25:21;;;;;;;2.33;0.75;;;10.90;90.90;;;;;;6244209;23;20075;-73
2022/12/20 07:27:49;;;;;;;1.63;0.80;;;10.90;90.90;;;;;;6244419;23;20035;-73
2022/12/20 07:30:16;;;;;;;1.15;0.60;;;11.00;90.90;;;;;;6244538;23;20004;-73
2022/12/20 07:32:41;;;;;;;0.63;0.63;;;10.80;90.80;;;;;;6244829;23;20020;-73
2022/12/20 07:35:09;;;;;;;0.68;0.68;;;10.90;90.90;;;;;;6244449;23;20050;-73
2022/12/20 07:37:35;;;;;;;0.85;0.63;;;10.90;90.80;;;;;;6212538;23;20011;-73
2022/12/20 07:40:01;;;;;;;1.55;0.82;;;10.90;90.80;;;;;;6243081;23;20000;-73
2022/12/20 07:42:27;;;;;;;0.80;0.80;;;10.90;90.80;;;;;;6218179;23;20476;-73
2022/12/20 07:44:52;;;;;;;1.80;0.70;;;10.90;90.80;;;;;;6244961;23;20004;-73
2022/12/20 07:47:18;;;;;;;0.95;0.75;;;10.90;90.80;;;;;;6244619;23;20004;-73
2022/12/20 07:49:44;;;;;;;1.70;0.77;;;10.90;90.70;;;;;;6244328;23;20007;-73
2022/12/20 07:52:12;;;;;;;1.17;0.70;;;10.90;90.70;;;;;;6244730;23;20431;-73
2022/12/20 07:54:45;;;;;;;0.65;0.63;;;10.90;90.80;;;;;;6244761;23;20019;-73
2022/12/20 07:57:15;;;;;;;1.25;0.85;;;10.90;90.80;;;;;;6244589;23;20031;-73
2022/12/20 07:59:47;;;;;;;0.60;0.60;;;10.90;90.80;;;;;;6244567;23;20008;-73
2022/12/20 08:02:18;;;;;;;1.02;0.90;;;10.90;90.70;;;;;;6217385;23;20087;-73
2022/12/20 08:04:44;;;;;;;1.13;0.88;;;11.00;90.90;;;;;;6244293;23;20084;-73
2022/12/20 08:07:10;;;;;;;1.00;0.70;;;11.00;90.60;;;;;;6244649;23;20432;-73
2022/12/20 08:09:40;;;;;;;0.73;0.73;;;11.00;90.60;;;;;;6244624;23;20004;-73
2022/12/20 08:12:08;;;;;;;1.20;0.85;;;11.00;90.60;;;;;;6216398;23;20005;-73
2022/12/20 08:14:34;;;;;;;0.65;0.50;;;11.00;90.60;;;;;;6244680;23;20302;-73
2022/12/20 08:16:59;;;;;;;1.10;0.63;;;10.90;90.60;;;;;;6244282;23;20032;-73
2022/12/20 08:19:25;;;;;;;1.10;0.88;;;10.90;90.70;;;;;;6244372;23;19996;-73
2022/12/20 08:21:51;;;;;;;2.25;0.98;;;10.90;90.60;;;;;;6216462;23;20405;-72
2022/12/20 08:24:16;;;;;;;1.05;0.80;;;11.00;90.60;;;;;;6217432;23;20004;-72
2022/12/20 08:26:42;;;;;;;1.77;1.10;;;11.00;90.50;;;;;;6216968;23;20007;-73
2022/12/20 08:29:08;;;;;;;0.75;0.70;;;11.00;90.50;;;;;;6244684;23;20007;-73
2022/12/20 08:31:38;;;;;;;1.33;0.82;;;10.90;90.50;;;;;;6244995;23;20368;-73
2022/12/20 08:34:04;;;;;;;1.58;0.90;;;10.90;90.50;;;;;;6217562;23;20429;-73
2022/12/20 08:36:30;;;;;;;1.33;0.90;;;10.80;90.50;;;;;;6245048;23;20064;-73
2022/12/20 08:38:56;;;;;;;1.25;0.95;;;10.80;90.90;;;;;;6244806;23;20325;-73
2022/12/20 08:41:22;;;;;;;1.48;1.00;;;10.70;90.70;;;;;;6244227;23;20000;-73
2022/12/20 08:43:47;;;;;;;3.67;1.10;;;10.70;90.70;;;;;;6244337;23;20158;-73
2022/12/20 08:46:13;;;;;;;0.75;0.65;;;10.80;90.70;;;;;;6244636;23;20008;-73
2022/12/20 08:48:39;;;;;;;1.10;1.00;;;10.80;90.70;;;;;;6244798;23;20004;-73
2022/12/20 08:51:08;;;;;;;1.20;0.80;;;10.80;90.70;;;;;;6168153;23;20050;-73
2022/12/20 08:53:34;;;;;;;1.27;0.90;;;10.80;90.60;;;;;;6245003;23;20397;-73
2022/12/20 08:56:14;;;;;;;1.83;0.93;;;10.80;90.90;;;;;;6244780;23;20023;-73
2022/12/20 08:58:41;;;;;;;1.42;0.88;;;10.90;90.70;;;;;;6235769;23;20420;-74
2022/12/20 09:01:10;;;;;;;1.05;0.95;;;11.00;90.70;;;;;;6163153;23;20448;-73
2022/12/20 09:03:37;;;;;;;1.60;1.00;;;10.80;90.60;;;;;;6187966;23;20001;-73
2022/12/20 09:06:10;;;;;;;1.40;1.02;;;10.80;90.60;;;;;;6217225;23;20047;-75
2022/12/20 09:08:37;;;;;;;1.13;0.90;;;10.80;90.60;;;;;;6215911;23;20008;-74
2022/12/20 09:11:06;;;;;;;2.13;0.73;;;10.70;90.70;;;;;;6217642;23;20013;-75
2022/12/20 09:13:33;;;;;;;0.80;0.80;;;10.70;90.80;;;;;;6215369;23;20920;-74
2022/12/20 09:16:01;;;;;;;1.55;1.00;;;10.70;90.80;;;;;;6191308;23;19996;-75
2022/12/20 09:18:27;;;;;;;2.30;0.90;;;10.70;91.10;;;;;;6217304;23;20107;-74
2022/12/20 09:20:52;;;;;;;1.33;0.90;;;10.60;90.90;;;;;;6220208;23;19996;-75
2022/12/20 09:23:18;;;;;;;1.92;1.00;;;10.60;90.90;;;;;;6197188;23;20005;-75
2022/12/20 09:25:44;;;;;;;2.40;1.10;;;10.50;90.90;;;;;;6200276;23;20012;-75
2022/12/20 09:28:09;;;;;;;2.05;1.00;;;10.50;91.00;;;;;;6222658;23;20008;-75
2022/12/20 09:30:35;;;;;;;2.47;0.80;;;10.60;91.00;;;;;;6226709;23;20361;-76
2022/12/20 09:33:01;;;;;;;1.90;0.80;;;10.50;91.00;;;;;;6203111;23;20024;-75
2022/12/20 09:35:26;;;;;;;1.00;0.90;;;10.50;91.10;;;;;;6228622;23;20440;-75
2022/12/20 09:37:52;;;;;;;0.80;0.70;;;10.50;91.10;;;;;;6228765;23;20005;-75
2022/12/20 09:40:20;;;;;;;0.70;0.68;;;10.40;91.10;;;;;;6226235;23;20028;-75
2022/12/20 09:42:48;;;;;;;0.73;0.60;;;10.50;91.20;;;;;;6199899;23;20001;-75
2022/12/20 09:45:24;;;;;;;0.63;0.63;;;10.50;91.30;;;;;;6201648;23;19997;-75
2022/12/20 09:47:51;;;;;;;1.05;0.82;;;10.40;91.20;;;;;;6223724;23;20004;-73
2022/12/20 09:50:19;;;;;;;0.73;0.73;;;10.40;91.20;;;;;;6196158;23;19997;-75
2022/12/20 09:53:15;;;;;;;1.42;0.88;;;10.50;91.30;;;;;;6221617;23;20450;-75
2022/12/20 09:55:53;;;;;;;1.23;1.00;;;10.50;91.20;;;;;;6225458;23;20001;-75
2022/12/20 09:58:43;;;;;;;0.90;0.88;;;10.60;91.20;;;;;;6225964;23;20061;-74
2022/12/20 10:01:19;;;;;;;0.98;0.70;;;10.60;91.20;;;;;;6221496;23;20382;-75
2022/12/20 10:03:44;;;;;;;0.82;0.80;;;10.60;91.20;;;;;;6200731;23;20000;-75
2022/12/20 10:06:39;;;;;;;0.75;0.70;;;10.50;91.20;;;;;;6224466;23;20016;-75
2022/12/20 10:09:14;;;;;;;1.30;0.80;;;10.50;91.20;;;;;;6189471;23;20011;-75
2022/12/20 10:11:56;;;;;;;1.30;0.80;;;10.50;91.20;;;;;;6213430;23;20083;-74
2022/12/20 10:14:42;;;;;;;1.95;0.73;;;10.50;91.20;;;;;;6189521;23;20437;-77
2022/12/20 10:17:22;;;;;;;1.10;0.70;;;10.60;91.30;;;;;;6183606;23;19997;-77
2022/12/20 10:20:15;;;;;;;1.30;0.75;;;10.70;91.30;;;;;;6213827;23;20000;-76
2022/12/20 10:23:04;;;;;;;0.60;0.60;;;10.60;91.30;;;;;;6181527;23;20005;-77
2022/12/20 10:25:32;;;;;;;0.93;0.60;;;10.60;91.30;;;;;;6213348;23;19997;-77
2022/12/20 10:28:01;;;;;;;1.02;0.63;;;10.60;91.30;;;;;;6214494;23;20032;-78
2022/12/20 10:30:30;;;;;;;1.38;0.73;;;10.60;91.30;;;;;;6186414;23;19997;-78
2022/12/20 10:32:57;;;;;;;1.08;0.70;;;10.60;91.30;;;;;;6213131;23;20059;-78
2022/12/20 10:35:37;;;;;;;0.68;0.68;;;10.50;91.30;;;;;;6213351;23;20012;-78
2022/12/20 10:38:05;;;;;;;0.50;0.50;;;10.50;91.40;;;;;;6186628;23;20020;-78
2022/12/20 10:40:36;;;;;;;2.72;0.85;;;10.50;91.70;;;;;;6187299;23;20080;-78
2022/12/20 10:43:05;;;;;;;1.50;0.70;;;10.50;91.50;;;;;;6186323;23;20131;-77
2022/12/20 10:45:37;;;;;;;0.65;0.65;;;10.50;91.50;;;;;;6214031;23;20025;-78
2022/12/20 10:48:20;;;;;;;0.80;0.70;;;10.50;91.50;;;;;;6206712;23;20000;-78
2022/12/20 10:50:55;;;;;;;0.80;0.80;;;10.50;91.50;;;;;;6190420;23;20035;-78
2022/12/20 10:53:24;;;;;;;0.70;0.70;;;10.50;91.60;;;;;;6159633;23;20441;-78
2022/12/20 10:55:51;;;;;;;0.77;0.77;;;10.50;91.60;;;;;;6187584;23;20307;-77
2022/12/20 10:58:32;;;;;;;1.30;0.80;;;10.50;91.60;;;;;;6187818;23;20406;-78
2022/12/20 11:01:12;;;;;;;0.88;0.70;;;10.50;91.60;;;;;;6223908;23;20475;-78
2022/12/20 11:03:52;;;;;;;0.77;0.70;;;10.50;91.60;;;;;;6212382;23;20007;-78
2022/12/20 11:06:18;;;;;;;1.02;0.80;;;10.60;91.60;;;;;;6243811;23;20008;-77
2022/12/20 11:08:44;;;;;;;0.75;0.70;;;10.50;91.60;;;;;;6244831;23;20437;-78
2022/12/20 11:11:15;;;;;;;1.00;0.80;;;10.60;91.60;;;;;;6244289;23;20007;-78
2022/12/20 11:13:42;;;;;;;0.70;0.60;;;10.50;91.60;;;;;;6243271;23;20008;-78
2022/12/20 11:16:42;;;;;;;1.08;0.80;;;10.50;91.60;;;;;;6228995;23;20000;-77
2022/12/20 11:19:42;;;;;;;0.80;0.60;;;10.50;91.70;;;;;;6251168;23;20020;-75
2022/12/20 11:22:42;;;;;;;1.00;0.82;;;10.50;91.70;;;;;;6227777;23;20008;-76
2022/12/20 11:25:36;;;;;;;0.95;0.80;;;10.60;91.70;;;;;;6245429;23;20022;-76
2022/12/20 11:28:24;;;;;;;3.40;1.10;;;10.50;91.70;;;;;;6246753;23;20000;-75
2022/12/20 11:31:14;;;;;;;0.52;0.45;;;10.50;91.70;;;;;;6218999;23;20007;-75
2022/12/20 11:33:58;;;;;;;1.20;0.68;;;10.50;91.70;;;;;;6250251;23;20008;-76
2022/12/20 11:36:57;;;;;;;0.75;0.70;;;10.50;91.70;;;;;;6221968;23;20000;-76
2022/12/20 11:39:49;;;;;;;0.77;0.60;;;10.60;91.70;;;;;;6228252;23;19997;-76
2022/12/20 11:42:35;;;;;;;1.55;1.00;;;10.60;91.70;;;;;;6226803;23;20004;-76
2022/12/20 11:45:22;;;;;;;0.82;0.70;;;10.70;91.70;;;;;;6246548;23;20015;-76
2022/12/20 11:48:05;;;;;;;1.15;0.80;;;10.70;91.70;;;;;;6245288;23;20000;-76
2022/12/20 11:50:57;;;;;;;1.17;0.73;;;10.70;91.60;;;;;;6244795;23;20000;-76
2022/12/20 11:53:36;;;;;;;1.30;0.90;;;10.70;91.60;;;;;;6247675;23;20008;-76
2022/12/20 11:56:10;;;;;;;0.80;0.70;;;10.60;91.60;;;;;;6194705;23;20012;-76
2022/12/20 11:58:49;;;;;;;0.65;0.65;;;10.70;91.70;;;;;;6246187;23;20000;-76
2022/12/20 12:01:19;;;;;;;1.38;0.80;;;10.70;91.70;;;;;;6219717;23;20004;-76
2022/12/20 12:04:12;;;;;;;1.57;0.77;;;10.70;91.70;;;;;;6245748;23;20037;-75
2022/12/20 12:06:44;;;;;;;1.90;0.90;;;10.70;91.70;;;;;;6245610;23;20291;-76
2022/12/20 12:09:25;;;;;;;1.00;0.85;;;10.70;91.80;;;;;;6217959;23;20091;-76
2022/12/20 12:12:01;;;;;;;2.00;0.80;;;10.70;91.80;;;;;;6221049;23;20079;-76
2022/12/20 12:14:34;;;;;;;1.60;0.98;;;10.70;91.80;;;;;;6221959;23;20394;-76
2022/12/20 12:17:08;;;;;;;1.10;0.75;;;10.80;91.80;;;;;;6248303;23;20054;-77
2022/12/20 12:19:40;;;;;;;0.98;0.80;;;10.70;91.70;;;;;;6225687;23;20035;-77
2022/12/20 12:22:14;;;;;;;1.08;0.90;;;10.80;91.80;;;;;;6225147;23;20000;-76
2022/12/20 12:24:46;;;;;;;0.82;0.80;;;10.80;91.80;;;;;;6255775;23;20030;-76
2022/12/20 12:27:22;;;;;;;1.77;0.98;;;10.80;91.80;;;;;;6217263;23;20012;-76
2022/12/20 12:29:48;;;;;;;1.48;0.90;;;10.90;91.80;;;;;;6173166;23;20015;-76
2022/12/20 12:32:24;;;;;;;1.95;0.80;;;10.90;91.90;;;;;;6220094;23;20064;-76
2022/12/20 12:35:15;;;;;;;1.73;1.10;;;10.80;91.90;;;;;;6222753;23;20023;-76
2022/12/20 12:38:01;;;;;;;0.70;0.68;;;10.80;91.90;;;;;;6246271;23;20332;-76
2022/12/20 12:40:49;;;;;;;0.88;0.70;;;10.80;91.90;;;;;;6221140;23;20001;-76
2022/12/20 12:43:54;;;;;;;2.05;0.77;;;10.80;91.90;;;;;;6216902;23;20063;-76
2022/12/20 12:46:35;;;;;;;1.42;1.00;;;10.80;92.00;;;;;;6207435;23;20004;-76
2022/12/20 12:49:09;;;;;;;1.70;0.90;;;10.80;92.00;;;;;;6249871;23;20000;-76
2022/12/20 12:51:39;;;;;;;2.17;0.90;;;10.80;92.00;;;;;;6246902;23;20234;-76
2022/12/20 12:54:24;;;;;;;0.90;0.80;;;10.80;92.00;;;;;;6248977;23;20012;-77
2022/12/20 12:56:52;;;;;;;1.80;1.08;;;10.80;92.00;;;;;;6221279;23;20061;-76
2022/12/20 12:59:44;;;;;;;1.95;0.98;;;10.80;92.00;;;;;;6217162;23;19997;-76
2022/12/20 13:02:33;;;;;;;1.80;0.90;;;10.80;92.10;;;;;;6244879;23;20400;-76
2022/12/20 13:05:20;;;;;;;0.90;0.80;;;10.70;92.00;;;;;;6224198;23;20004;-77
2022/12/20 13:07:45;;;;;;;0.90;0.90;;;10.80;92.10;;;;;;6201751;23;20008;-76
2022/12/20 13:10:51;;;;;;;1.02;0.93;;;10.70;92.10;;;;;;6246185;23;20043;-76
2022/12/20 13:13:22;;;;;;;1.23;0.90;;;10.70;92.10;;;;;;6208556;23;20095;-75
2022/12/20 13:15:50;;;;;;;2.13;0.98;;;10.70;92.10;;;;;;6221130;23;20012;-76